sensor_id;sensor_type;location;lat;lon;timestamp;temperature;humidity
7290;DHT22;63176;52.678;13.250;2024-01-30T00:01:25;2.10;99.90
7290;DHT22;63176;52.678;13.250;2024-01-30T00:03:51;2.20;99.90
7290;DHT22;63176;52.678;13.250;2024-01-30T00:06:20;2.20;99.90
7290;DHT22;63176;52.678;13.250;2024-01-30T00:08:46;2.00;99.90
7290;DHT22;63176;52.678;13.250;2024-01-30T00:11:14;2.00;99.90
7290;DHT22;63176;52.678;13.250;2024-01-30T00:13:40;2.00;99.90
7290;DHT22;63176;52.678;13.250;2024-01-30T00:16:06;2.10;99.90
7290;DHT22;63176;52.678;13.250;2024-01-30T00:18:32;1.90;99.90
7290;DHT22;63176;52.678;13.250;2024-01-30T00:20:57;2.00;99.90
7290;DHT22;63176;52.678;13.250;2024-01-30T00:23:23;1.90;99.90
7290;DHT22;63176;52.678;13.250;2024-01-30T00:25:49;2.10;99.90
7290;DHT22;63176;52.678;13.250;2024-01-30T00:28:15;1.80;99.90
7290;DHT22;63176;52.678;13.250;2024-01-30T00:30:41;1.80;99.90
7290;DHT22;63176;52.678;13.250;2024-01-30T00:33:06;2.00;99.90
7290;DHT22;63176;52.678;13.250;2024-01-30T00:35:33;2.20;99.90
7290;DHT22;63176;52.678;13.250;2024-01-30T00:37:58;1.90;99.90
7290;DHT22;63176;52.678;13.250;2024-01-30T00:40:24;1.80;99.90
7290;DHT22;63176;52.678;13.250;2024-01-30T00:42:50;1.80;99.90
7290;DHT22;63176;52.678;13.250;2024-01-30T00:45:16;1.90;99.90
7290;DHT22;63176;52.678;13.250;2024-01-30T00:47:42;1.80;99.90
7290;DHT22;63176;52.678;13.250;2024-01-30T00:50:08;1.70;99.90
7290;DHT22;63176;52.678;13.250;2024-01-30T00:52:34;1.70;99.90
7290;DHT22;63176;52.678;13.250;2024-01-30T00:55:01;1.90;99.90
7290;DHT22;63176;52.678;13.250;2024-01-30T00:57:27;2.00;99.90
7290;DHT22;63176;52.678;13.250;2024-01-30T00:59:52;1.60;99.90
7290;DHT22;63176;52.678;13.250;2024-01-30T01:02:18;1.70;99.90
7290;DHT22;63176;52.678;13.250;2024-01-30T01:04:44;2.10;99.90
7290;DHT22;63176;52.678;13.250;2024-01-30T01:07:10;1.60;99.90
7290;DHT22;63176;52.678;13.250;2024-01-30T01:09:36;1.80;99.90
7290;DHT22;63176;52.678;13.250;2024-01-30T01:12:02;1.90;99.90
7290;DHT22;63176;52.678;13.250;2024-01-30T01:14:28;1.70;99.90
7290;DHT22;63176;52.678;13.250;2024-01-30T01:16:53;1.80;99.90
7290;DHT22;63176;52.678;13.250;2024-01-30T01:19:19;1.70;99.90
7290;DHT22;63176;52.678;13.250;2024-01-30T01:21:45;1.70;99.90
7290;DHT22;63176;52.678;13.250;2024-01-30T01:24:10;1.60;99.90
7290;DHT22;63176;52.678;13.250;2024-01-30T01:26:36;1.60;99.90
7290;DHT22;63176;52.678;13.250;2024-01-30T01:29:01;1.60;99.90
7290;DHT22;63176;52.678;13.250;2024-01-30T01:31:29;1.80;99.90
7290;DHT22;63176;52.678;13.250;2024-01-30T01:33:55;1.90;99.90
7290;DHT22;63176;52.678;13.250;2024-01-30T01:36:21;1.70;99.90
7290;DHT22;63176;52.678;13.250;2024-01-30T01:38:46;1.50;99.90
7290;DHT22;63176;52.678;13.250;2024-01-30T01:41:12;1.60;99.90
7290;DHT22;63176;52.678;13.250;2024-01-30T01:43:38;1.50;99.90
7290;DHT22;63176;52.678;13.250;2024-01-30T01:46:06;1.60;99.90
7290;DHT22;63176;52.678;13.250;2024-01-30T01:48:32;1.50;99.90
7290;DHT22;63176;52.678;13.250;2024-01-30T01:50:59;1.60;99.90
7290;DHT22;63176;52.678;13.250;2024-01-30T01:53:25;1.50;99.90
7290;DHT22;63176;52.678;13.250;2024-01-30T01:55:51;1.60;99.90
7290;DHT22;63176;52.678;13.250;2024-01-30T01:58:19;1.80;99.90
7290;DHT22;63176;52.678;13.250;2024-01-30T02:00:47;1.60;99.90
7290;DHT22;63176;52.678;13.250;2024-01-30T02:03:13;1.80;99.90
7290;DHT22;63176;52.678;13.250;2024-01-30T02:05:42;1.50;99.90
7290;DHT22;63176;52.678;13.250;2024-01-30T02:08:08;1.50;99.90
7290;DHT22;63176;52.678;13.250;2024-01-30T02:10:34;1.60;99.90
7290;DHT22;63176;52.678;13.250;2024-01-30T02:12:59;1.70;99.90
7290;DHT22;63176;52.678;13.250;2024-01-30T02:15:25;1.60;99.90
7290;DHT22;63176;52.678;13.250;2024-01-30T02:17:51;1.70;99.90
7290;DHT22;63176;52.678;13.250;2024-01-30T02:20:16;1.80;99.90
7290;DHT22;63176;52.678;13.250;2024-01-30T02:22:42;1.70;99.90
7290;DHT22;63176;52.678;13.250;2024-01-30T02:25:08;1.60;99.90
7290;DHT22;63176;52.678;13.250;2024-01-30T02:27:34;1.80;99.90
7290;DHT22;63176;52.678;13.250;2024-01-30T02:30:00;1.50;99.90
7290;DHT22;63176;52.678;13.250;2024-01-30T02:32:25;1.70;99.90
7290;DHT22;63176;52.678;13.250;2024-01-30T02:34:51;1.80;99.90
7290;DHT22;63176;52.678;13.250;2024-01-30T02:37:17;1.50;99.90
7290;DHT22;63176;52.678;13.250;2024-01-30T02:39:42;1.50;99.90
7290;DHT22;63176;52.678;13.250;2024-01-30T02:42:08;1.60;99.90
7290;DHT22;63176;52.678;13.250;2024-01-30T02:44:34;1.50;99.90
7290;DHT22;63176;52.678;13.250;2024-01-30T02:46:59;1.50;99.90
7290;DHT22;63176;52.678;13.250;2024-01-30T02:49:25;1.50;99.90
7290;DHT22;63176;52.678;13.250;2024-01-30T02:51:53;1.40;99.90
7290;DHT22;63176;52.678;13.250;2024-01-30T02:54:19;1.40;99.90
7290;DHT22;63176;52.678;13.250;2024-01-30T02:56:44;1.80;99.90
7290;DHT22;63176;52.678;13.250;2024-01-30T02:59:10;1.30;99.90
7290;DHT22;63176;52.678;13.250;2024-01-30T03:01:43;1.60;99.90
7290;DHT22;63176;52.678;13.250;2024-01-30T03:04:09;1.70;99.90
7290;DHT22;63176;52.678;13.250;2024-01-30T03:06:35;1.50;99.90
7290;DHT22;63176;52.678;13.250;2024-01-30T03:09:00;1.60;99.90
7290;DHT22;63176;52.678;13.250;2024-01-30T03:11:26;1.50;99.90
7290;DHT22;63176;52.678;13.250;2024-01-30T03:13:52;1.40;99.90
7290;DHT22;63176;52.678;13.250;2024-01-30T03:16:17;1.30;99.90
7290;DHT22;63176;52.678;13.250;2024-01-30T03:18:43;1.40;99.90
7290;DHT22;63176;52.678;13.250;2024-01-30T03:21:08;1.40;99.90
7290;DHT22;63176;52.678;13.250;2024-01-30T03:23:34;1.50;99.90
7290;DHT22;63176;52.678;13.250;2024-01-30T03:26:00;1.50;99.90
7290;DHT22;63176;52.678;13.250;2024-01-30T03:28:25;1.40;99.90
7290;DHT22;63176;52.678;13.250;2024-01-30T03:30:51;1.40;99.90
7290;DHT22;63176;52.678;13.250;2024-01-30T03:33:17;1.60;99.90
7290;DHT22;63176;52.678;13.250;2024-01-30T03:35:42;1.80;99.90
7290;DHT22;63176;52.678;13.250;2024-01-30T03:38:08;1.50;99.90
7290;DHT22;63176;52.678;13.250;2024-01-30T03:40:34;1.30;99.90
7290;DHT22;63176;52.678;13.250;2024-01-30T03:42:59;1.50;99.90
7290;DHT22;63176;52.678;13.250;2024-01-30T03:45:25;1.70;99.90
7290;DHT22;63176;52.678;13.250;2024-01-30T03:47:50;1.40;99.90
7290;DHT22;63176;52.678;13.250;2024-01-30T03:50:16;1.40;99.90
7290;DHT22;63176;52.678;13.250;2024-01-30T03:52:42;1.80;99.90
7290;DHT22;63176;52.678;13.250;2024-01-30T03:55:07;1.70;99.90
7290;DHT22;63176;52.678;13.250;2024-01-30T03:57:33;1.40;99.90
7290;DHT22;63176;52.678;13.250;2024-01-30T03:59:59;1.50;99.90
7290;DHT22;63176;52.678;13.250;2024-01-30T04:02:24;1.60;99.90
7290;DHT22;63176;52.678;13.250;2024-01-30T04:04:50;1.60;99.90
7290;DHT22;63176;52.678;13.250;2024-01-30T04:07:15;1.60;99.90
7290;DHT22;63176;52.678;13.250;2024-01-30T04:09:41;1.60;99.90
7290;DHT22;63176;52.678;13.250;2024-01-30T04:12:07;1.60;99.90
7290;DHT22;63176;52.678;13.250;2024-01-30T04:14:32;1.50;99.90
7290;DHT22;63176;52.678;13.250;2024-01-30T04:16:58;1.50;99.90
7290;DHT22;63176;52.678;13.250;2024-01-30T04:19:25;1.50;99.90
7290;DHT22;63176;52.678;13.250;2024-01-30T04:21:50;1.50;99.90
7290;DHT22;63176;52.678;13.250;2024-01-30T04:24:16;1.60;99.90
7290;DHT22;63176;52.678;13.250;2024-01-30T04:26:44;1.50;99.90
7290;DHT22;63176;52.678;13.250;2024-01-30T04:29:09;1.50;99.90
7290;DHT22;63176;52.678;13.250;2024-01-30T04:31:36;1.80;99.90
7290;DHT22;63176;52.678;13.250;2024-01-30T04:34:02;1.50;99.90
7290;DHT22;63176;52.678;13.250;2024-01-30T04:36:28;1.60;99.90
7290;DHT22;63176;52.678;13.250;2024-01-30T04:38:53;1.40;99.90
7290;DHT22;63176;52.678;13.250;2024-01-30T04:41:19;1.60;99.90
7290;DHT22;63176;52.678;13.250;2024-01-30T04:43:44;1.50;99.90
7290;DHT22;63176;52.678;13.250;2024-01-30T04:46:10;1.70;99.90
7290;DHT22;63176;52.678;13.250;2024-01-30T04:48:35;1.50;99.90
7290;DHT22;63176;52.678;13.250;2024-01-30T04:51:01;1.40;99.90
7290;DHT22;63176;52.678;13.250;2024-01-30T04:53:30;1.60;99.90
7290;DHT22;63176;52.678;13.250;2024-01-30T04:55:56;1.40;99.90
7290;DHT22;63176;52.678;13.250;2024-01-30T04:58:21;1.30;99.90
7290;DHT22;63176;52.678;13.250;2024-01-30T05:00:47;1.40;99.90
7290;DHT22;63176;52.678;13.250;2024-01-30T05:03:17;1.50;99.90
7290;DHT22;63176;52.678;13.250;2024-01-30T05:05:43;1.20;99.90
7290;DHT22;63176;52.678;13.250;2024-01-30T05:08:08;1.50;99.90
7290;DHT22;63176;52.678;13.250;2024-01-30T05:10:34;1.30;99.90
7290;DHT22;63176;52.678;13.250;2024-01-30T05:12:59;1.20;99.90
7290;DHT22;63176;52.678;13.250;2024-01-30T05:15:25;1.20;99.90
7290;DHT22;63176;52.678;13.250;2024-01-30T05:17:51;1.20;99.90
7290;DHT22;63176;52.678;13.250;2024-01-30T05:20:17;1.20;99.90
7290;DHT22;63176;52.678;13.250;2024-01-30T05:22:43;1.20;99.90
7290;DHT22;63176;52.678;13.250;2024-01-30T05:25:11;1.40;99.90
7290;DHT22;63176;52.678;13.250;2024-01-30T05:27:37;1.60;99.90
7290;DHT22;63176;52.678;13.250;2024-01-30T05:30:05;1.60;99.90
7290;DHT22;63176;52.678;13.250;2024-01-30T05:32:31;1.30;99.90
7290;DHT22;63176;52.678;13.250;2024-01-30T05:34:57;1.40;99.90
7290;DHT22;63176;52.678;13.250;2024-01-30T05:37:22;1.40;99.90
7290;DHT22;63176;52.678;13.250;2024-01-30T05:39:48;1.50;99.90
7290;DHT22;63176;52.678;13.250;2024-01-30T05:42:14;1.20;99.90
7290;DHT22;63176;52.678;13.250;2024-01-30T05:44:40;1.20;99.90
7290;DHT22;63176;52.678;13.250;2024-01-30T05:47:06;1.50;99.90
7290;DHT22;63176;52.678;13.250;2024-01-30T05:49:31;1.40;99.90
7290;DHT22;63176;52.678;13.250;2024-01-30T05:51:58;1.10;99.90
7290;DHT22;63176;52.678;13.250;2024-01-30T05:54:23;1.00;99.90
7290;DHT22;63176;52.678;13.250;2024-01-30T05:56:49;1.00;99.90
7290;DHT22;63176;52.678;13.250;2024-01-30T05:59:14;1.50;99.90
7290;DHT22;63176;52.678;13.250;2024-01-30T06:01:47;1.10;99.90
7290;DHT22;63176;52.678;13.250;2024-01-30T06:04:13;1.10;99.90
7290;DHT22;63176;52.678;13.250;2024-01-30T06:06:39;1.40;99.90
7290;DHT22;63176;52.678;13.250;2024-01-30T06:09:05;1.30;99.90
7290;DHT22;63176;52.678;13.250;2024-01-30T06:11:30;1.50;99.90
7290;DHT22;63176;52.678;13.250;2024-01-30T06:13:56;1.30;99.90
7290;DHT22;63176;52.678;13.250;2024-01-30T06:16:22;1.40;99.90
7290;DHT22;63176;52.678;13.250;2024-01-30T06:18:48;1.10;99.90
7290;DHT22;63176;52.678;13.250;2024-01-30T06:21:16;1.40;99.90
7290;DHT22;63176;52.678;13.250;2024-01-30T06:23:41;1.10;99.90
7290;DHT22;63176;52.678;13.250;2024-01-30T06:26:07;1.20;99.90
7290;DHT22;63176;52.678;13.250;2024-01-30T06:28:33;1.30;99.90
7290;DHT22;63176;52.678;13.250;2024-01-30T06:31:01;1.20;99.90
7290;DHT22;63176;52.678;13.250;2024-01-30T06:33:26;1.50;99.90
7290;DHT22;63176;52.678;13.250;2024-01-30T06:35:52;1.60;99.90
7290;DHT22;63176;52.678;13.250;2024-01-30T06:38:17;1.10;99.90
7290;DHT22;63176;52.678;13.250;2024-01-30T06:40:43;1.40;99.90
7290;DHT22;63176;52.678;13.250;2024-01-30T06:43:09;1.10;99.90
7290;DHT22;63176;52.678;13.250;2024-01-30T06:45:34;1.30;99.90
7290;DHT22;63176;52.678;13.250;2024-01-30T06:48:00;1.30;99.90
7290;DHT22;63176;52.678;13.250;2024-01-30T06:50:26;1.30;99.90
7290;DHT22;63176;52.678;13.250;2024-01-30T06:52:52;1.80;99.90
7290;DHT22;63176;52.678;13.250;2024-01-30T06:55:18;1.70;99.90
7290;DHT22;63176;52.678;13.250;2024-01-30T06:57:44;1.70;99.90
7290;DHT22;63176;52.678;13.250;2024-01-30T07:00:10;1.20;99.90
7290;DHT22;63176;52.678;13.250;2024-01-30T07:02:36;1.20;99.90
7290;DHT22;63176;52.678;13.250;2024-01-30T07:05:02;1.20;99.90
7290;DHT22;63176;52.678;13.250;2024-01-30T07:07:28;1.20;99.90
7290;DHT22;63176;52.678;13.250;2024-01-30T07:09:54;1.40;99.90
7290;DHT22;63176;52.678;13.250;2024-01-30T07:12:25;1.60;99.90
7290;DHT22;63176;52.678;13.250;2024-01-30T07:14:51;1.40;99.90
7290;DHT22;63176;52.678;13.250;2024-01-30T07:17:17;1.60;99.90
7290;DHT22;63176;52.678;13.250;2024-01-30T07:19:43;1.40;99.90
7290;DHT22;63176;52.678;13.250;2024-01-30T07:22:08;1.70;99.90
7290;DHT22;63176;52.678;13.250;2024-01-30T07:24:34;1.60;99.90
7290;DHT22;63176;52.678;13.250;2024-01-30T07:27:00;1.60;99.90
7290;DHT22;63176;52.678;13.250;2024-01-30T07:29:26;1.70;99.90
7290;DHT22;63176;52.678;13.250;2024-01-30T07:31:51;1.60;99.90
7290;DHT22;63176;52.678;13.250;2024-01-30T07:34:17;1.80;99.90
7290;DHT22;63176;52.678;13.250;2024-01-30T07:36:43;1.80;99.90
7290;DHT22;63176;52.678;13.250;2024-01-30T07:39:08;1.90;99.90
7290;DHT22;63176;52.678;13.250;2024-01-30T07:41:35;2.00;99.90
7290;DHT22;63176;52.678;13.250;2024-01-30T07:44:01;1.90;99.90
7290;DHT22;63176;52.678;13.250;2024-01-30T07:46:26;1.80;99.90
7290;DHT22;63176;52.678;13.250;2024-01-30T07:48:52;1.90;99.90
7290;DHT22;63176;52.678;13.250;2024-01-30T07:51:18;1.70;99.90
7290;DHT22;63176;52.678;13.250;2024-01-30T07:53:44;1.90;99.90
7290;DHT22;63176;52.678;13.250;2024-01-30T07:56:10;1.80;99.90
7290;DHT22;63176;52.678;13.250;2024-01-30T07:58:36;1.90;99.90
7290;DHT22;63176;52.678;13.250;2024-01-30T08:01:05;1.80;99.90
7290;DHT22;63176;52.678;13.250;2024-01-30T08:03:30;1.80;99.90
7290;DHT22;63176;52.678;13.250;2024-01-30T08:05:56;2.20;99.90
7290;DHT22;63176;52.678;13.250;2024-01-30T08:08:22;2.00;99.90
7290;DHT22;63176;52.678;13.250;2024-01-30T08:10:47;2.00;99.90
7290;DHT22;63176;52.678;13.250;2024-01-30T08:13:14;1.90;99.90
7290;DHT22;63176;52.678;13.250;2024-01-30T08:15:40;2.00;99.90
7290;DHT22;63176;52.678;13.250;2024-01-30T08:18:05;2.20;99.90
7290;DHT22;63176;52.678;13.250;2024-01-30T08:20:32;2.10;99.90
7290;DHT22;63176;52.678;13.250;2024-01-30T08:22:58;2.30;99.90
7290;DHT22;63176;52.678;13.250;2024-01-30T08:25:25;2.20;99.90
7290;DHT22;63176;52.678;13.250;2024-01-30T08:27:51;2.60;99.90
7290;DHT22;63176;52.678;13.250;2024-01-30T08:30:17;2.40;99.90
7290;DHT22;63176;52.678;13.250;2024-01-30T08:32:42;2.40;99.90
7290;DHT22;63176;52.678;13.250;2024-01-30T08:35:08;2.40;99.90
7290;DHT22;63176;52.678;13.250;2024-01-30T08:37:34;2.40;99.90
7290;DHT22;63176;52.678;13.250;2024-01-30T08:40:00;2.40;99.90
7290;DHT22;63176;52.678;13.250;2024-01-30T08:42:27;2.50;99.90
7290;DHT22;63176;52.678;13.250;2024-01-30T08:44:53;2.50;99.90
7290;DHT22;63176;52.678;13.250;2024-01-30T08:47:19;2.70;99.90
7290;DHT22;63176;52.678;13.250;2024-01-30T08:49:45;2.60;99.90
7290;DHT22;63176;52.678;13.250;2024-01-30T08:52:11;2.70;99.90
7290;DHT22;63176;52.678;13.250;2024-01-30T08:54:36;2.80;99.90
7290;DHT22;63176;52.678;13.250;2024-01-30T08:57:02;2.80;99.90
7290;DHT22;63176;52.678;13.250;2024-01-30T08:59:29;2.90;99.90
7290;DHT22;63176;52.678;13.250;2024-01-30T09:01:55;3.00;99.90
7290;DHT22;63176;52.678;13.250;2024-01-30T09:04:21;3.20;99.90
7290;DHT22;63176;52.678;13.250;2024-01-30T09:06:48;3.10;99.90
7290;DHT22;63176;52.678;13.250;2024-01-30T09:09:14;3.30;99.90
7290;DHT22;63176;52.678;13.250;2024-01-30T09:11:40;3.10;99.90
7290;DHT22;63176;52.678;13.250;2024-01-30T09:14:05;3.30;99.90
7290;DHT22;63176;52.678;13.250;2024-01-30T09:16:31;3.20;99.90
7290;DHT22;63176;52.678;13.250;2024-01-30T09:18:57;3.40;99.90
7290;DHT22;63176;52.678;13.250;2024-01-30T09:21:23;3.50;99.90
7290;DHT22;63176;52.678;13.250;2024-01-30T09:23:49;3.40;99.90
7290;DHT22;63176;52.678;13.250;2024-01-30T09:26:14;3.60;99.90
7290;DHT22;63176;52.678;13.250;2024-01-30T09:28:40;3.90;99.90
7290;DHT22;63176;52.678;13.250;2024-01-30T09:31:11;4.10;99.90
7290;DHT22;63176;52.678;13.250;2024-01-30T09:33:37;4.10;99.90
7290;DHT22;63176;52.678;13.250;2024-01-30T09:36:02;4.30;99.90
7290;DHT22;63176;52.678;13.250;2024-01-30T09:38:28;4.40;99.90
7290;DHT22;63176;52.678;13.250;2024-01-30T09:40:54;4.50;99.90
7290;DHT22;63176;52.678;13.250;2024-01-30T09:43:23;4.70;99.90
7290;DHT22;63176;52.678;13.250;2024-01-30T09:45:50;4.90;99.90
7290;DHT22;63176;52.678;13.250;2024-01-30T09:48:15;5.00;99.90
7290;DHT22;63176;52.678;13.250;2024-01-30T09:50:41;5.20;99.90
7290;DHT22;63176;52.678;13.250;2024-01-30T09:53:08;5.30;99.90
7290;DHT22;63176;52.678;13.250;2024-01-30T09:55:35;5.40;99.90
7290;DHT22;63176;52.678;13.250;2024-01-30T09:58:01;5.60;99.90
7290;DHT22;63176;52.678;13.250;2024-01-30T10:00:27;5.70;99.90
7290;DHT22;63176;52.678;13.250;2024-01-30T10:02:56;5.70;99.90
7290;DHT22;63176;52.678;13.250;2024-01-30T10:05:26;5.90;99.90
7290;DHT22;63176;52.678;13.250;2024-01-30T10:07:54;5.90;99.90
7290;DHT22;63176;52.678;13.250;2024-01-30T10:10:25;5.90;99.90
7290;DHT22;63176;52.678;13.250;2024-01-30T10:12:51;6.00;99.90
7290;DHT22;63176;52.678;13.250;2024-01-30T10:15:18;6.10;99.90
7290;DHT22;63176;52.678;13.250;2024-01-30T10:17:47;6.20;99.90
7290;DHT22;63176;52.678;13.250;2024-01-30T10:20:13;6.30;99.90
7290;DHT22;63176;52.678;13.250;2024-01-30T10:22:40;6.30;99.90
7290;DHT22;63176;52.678;13.250;2024-01-30T10:25:09;6.40;99.90
7290;DHT22;63176;52.678;13.250;2024-01-30T10:27:34;6.40;99.90
7290;DHT22;63176;52.678;13.250;2024-01-30T10:30:00;6.50;99.90
7290;DHT22;63176;52.678;13.250;2024-01-30T10:32:26;6.60;99.90
7290;DHT22;63176;52.678;13.250;2024-01-30T10:34:52;6.60;99.90
7290;DHT22;63176;52.678;13.250;2024-01-30T10:37:19;6.70;99.90
7290;DHT22;63176;52.678;13.250;2024-01-30T10:39:47;6.70;99.90
7290;DHT22;63176;52.678;13.250;2024-01-30T10:42:24;6.80;99.90
7290;DHT22;63176;52.678;13.250;2024-01-30T10:45:02;6.90;99.90
7290;DHT22;63176;52.678;13.250;2024-01-30T10:47:31;7.00;99.90
7290;DHT22;63176;52.678;13.250;2024-01-30T10:49:59;7.00;99.90
7290;DHT22;63176;52.678;13.250;2024-01-30T10:52:26;7.10;99.90
7290;DHT22;63176;52.678;13.250;2024-01-30T10:54:54;7.20;99.90
7290;DHT22;63176;52.678;13.250;2024-01-30T10:57:23;7.20;99.90
7290;DHT22;63176;52.678;13.250;2024-01-30T10:59:49;7.20;99.90
7290;DHT22;63176;52.678;13.250;2024-01-30T11:02:16;7.30;99.90
7290;DHT22;63176;52.678;13.250;2024-01-30T11:04:42;7.40;99.90
7290;DHT22;63176;52.678;13.250;2024-01-30T11:07:19;7.50;99.90
7290;DHT22;63176;52.678;13.250;2024-01-30T11:09:54;7.50;99.90
7290;DHT22;63176;52.678;13.250;2024-01-30T11:12:28;7.60;99.90
7290;DHT22;63176;52.678;13.250;2024-01-30T11:15:08;7.60;99.90
7290;DHT22;63176;52.678;13.250;2024-01-30T11:17:50;7.70;99.90
7290;DHT22;63176;52.678;13.250;2024-01-30T11:20:25;7.70;99.90
7290;DHT22;63176;52.678;13.250;2024-01-30T11:22:53;7.80;99.90
7290;DHT22;63176;52.678;13.250;2024-01-30T11:25:20;7.80;99.90
7290;DHT22;63176;52.678;13.250;2024-01-30T11:27:47;7.80;99.90
7290;DHT22;63176;52.678;13.250;2024-01-30T11:35:24;7.80;99.90
7290;DHT22;63176;52.678;13.250;2024-01-30T11:37:50;7.70;99.90
7290;DHT22;63176;52.678;13.250;2024-01-30T11:40:16;7.70;99.90
7290;DHT22;63176;52.678;13.250;2024-01-30T11:42:42;7.70;99.90
7290;DHT22;63176;52.678;13.250;2024-01-30T11:45:09;7.70;99.90
7290;DHT22;63176;52.678;13.250;2024-01-30T11:47:36;7.70;99.90
7290;DHT22;63176;52.678;13.250;2024-01-30T11:50:04;7.70;99.90
7290;DHT22;63176;52.678;13.250;2024-01-30T11:52:33;7.70;99.90
7290;DHT22;63176;52.678;13.250;2024-01-30T11:54:59;7.70;99.90
7290;DHT22;63176;52.678;13.250;2024-01-30T11:57:27;7.70;99.90
7290;DHT22;63176;52.678;13.250;2024-01-30T11:59:52;7.60;99.90
7290;DHT22;63176;52.678;13.250;2024-01-30T12:02:18;7.70;99.90
7290;DHT22;63176;52.678;13.250;2024-01-30T12:04:44;7.70;99.90
7290;DHT22;63176;52.678;13.250;2024-01-30T12:07:10;7.80;99.90
7290;DHT22;63176;52.678;13.250;2024-01-30T12:09:36;7.80;99.90
7290;DHT22;63176;52.678;13.250;2024-01-30T12:12:02;7.90;99.90
7290;DHT22;63176;52.678;13.250;2024-01-30T12:14:28;7.90;99.90
7290;DHT22;63176;52.678;13.250;2024-01-30T12:16:54;7.90;99.90
7290;DHT22;63176;52.678;13.250;2024-01-30T12:19:24;8.00;99.90
7290;DHT22;63176;52.678;13.250;2024-01-30T12:21:59;8.00;99.90
7290;DHT22;63176;52.678;13.250;2024-01-30T12:24:25;8.10;99.90
7290;DHT22;63176;52.678;13.250;2024-01-30T12:26:51;8.10;99.90
7290;DHT22;63176;52.678;13.250;2024-01-30T12:29:19;8.10;99.90
7290;DHT22;63176;52.678;13.250;2024-01-30T12:31:48;8.10;99.90
7290;DHT22;63176;52.678;13.250;2024-01-30T12:34:16;8.10;99.90
7290;DHT22;63176;52.678;13.250;2024-01-30T12:36:43;8.10;99.90
7290;DHT22;63176;52.678;13.250;2024-01-30T12:39:12;8.20;99.90
7290;DHT22;63176;52.678;13.250;2024-01-30T12:41:40;8.20;99.90
7290;DHT22;63176;52.678;13.250;2024-01-30T12:44:06;8.20;99.90
7290;DHT22;63176;52.678;13.250;2024-01-30T12:46:34;8.20;99.90
7290;DHT22;63176;52.678;13.250;2024-01-30T12:48:59;8.20;99.90
7290;DHT22;63176;52.678;13.250;2024-01-30T12:51:25;8.20;99.90
7290;DHT22;63176;52.678;13.250;2024-01-30T12:53:51;8.20;99.90
7290;DHT22;63176;52.678;13.250;2024-01-30T12:56:16;8.20;99.90
7290;DHT22;63176;52.678;13.250;2024-01-30T12:58:42;8.20;99.90
7290;DHT22;63176;52.678;13.250;2024-01-30T13:01:08;8.20;99.90
7290;DHT22;63176;52.678;13.250;2024-01-30T13:03:34;8.20;99.90
7290;DHT22;63176;52.678;13.250;2024-01-30T13:06:00;8.10;99.90
7290;DHT22;63176;52.678;13.250;2024-01-30T13:08:26;8.10;99.90
7290;DHT22;63176;52.678;13.250;2024-01-30T13:10:51;8.10;99.90
7290;DHT22;63176;52.678;13.250;2024-01-30T13:13:17;8.10;99.90
7290;DHT22;63176;52.678;13.250;2024-01-30T13:15:42;8.00;99.90
7290;DHT22;63176;52.678;13.250;2024-01-30T13:18:08;8.00;99.90
7290;DHT22;63176;52.678;13.250;2024-01-30T13:20:34;8.00;99.90
7290;DHT22;63176;52.678;13.250;2024-01-30T13:22:59;7.90;99.90
7290;DHT22;63176;52.678;13.250;2024-01-30T13:25:25;7.90;99.90
7290;DHT22;63176;52.678;13.250;2024-01-30T13:27:51;7.90;99.90
7290;DHT22;63176;52.678;13.250;2024-01-30T13:30:16;7.90;99.90
7290;DHT22;63176;52.678;13.250;2024-01-30T13:32:42;7.80;99.90
7290;DHT22;63176;52.678;13.250;2024-01-30T13:35:09;7.80;99.90
7290;DHT22;63176;52.678;13.250;2024-01-30T13:37:35;7.80;99.90
7290;DHT22;63176;52.678;13.250;2024-01-30T13:40:05;7.80;99.90
7290;DHT22;63176;52.678;13.250;2024-01-30T13:42:34;7.80;99.90
7290;DHT22;63176;52.678;13.250;2024-01-30T13:45:00;7.80;99.90
7290;DHT22;63176;52.678;13.250;2024-01-30T13:47:25;7.80;99.90
7290;DHT22;63176;52.678;13.250;2024-01-30T13:49:51;7.80;99.90
7290;DHT22;63176;52.678;13.250;2024-01-30T13:52:18;7.80;99.90
7290;DHT22;63176;52.678;13.250;2024-01-30T13:54:44;7.80;99.90
7290;DHT22;63176;52.678;13.250;2024-01-30T13:57:10;7.80;99.90
7290;DHT22;63176;52.678;13.250;2024-01-30T13:59:37;7.80;99.90
7290;DHT22;63176;52.678;13.250;2024-01-30T14:02:03;7.80;99.90
7290;DHT22;63176;52.678;13.250;2024-01-30T14:04:28;7.90;99.90
7290;DHT22;63176;52.678;13.250;2024-01-30T14:06:54;7.80;99.90
7290;DHT22;63176;52.678;13.250;2024-01-30T14:09:19;7.80;99.90
7290;DHT22;63176;52.678;13.250;2024-01-30T14:11:46;7.80;99.90
7290;DHT22;63176;52.678;13.250;2024-01-30T14:14:12;7.80;99.90
7290;DHT22;63176;52.678;13.250;2024-01-30T14:16:38;7.80;99.90
7290;DHT22;63176;52.678;13.250;2024-01-30T14:19:03;7.80;99.90
7290;DHT22;63176;52.678;13.250;2024-01-30T14:21:29;7.80;99.90
7290;DHT22;63176;52.678;13.250;2024-01-30T14:23:55;7.70;99.90
7290;DHT22;63176;52.678;13.250;2024-01-30T14:26:20;7.70;99.90
7290;DHT22;63176;52.678;13.250;2024-01-30T14:28:46;7.70;99.90
7290;DHT22;63176;52.678;13.250;2024-01-30T14:31:12;7.70;99.90
7290;DHT22;63176;52.678;13.250;2024-01-30T14:33:39;7.70;99.90
7290;DHT22;63176;52.678;13.250;2024-01-30T14:36:04;7.70;99.90
7290;DHT22;63176;52.678;13.250;2024-01-30T14:38:30;7.70;99.90
7290;DHT22;63176;52.678;13.250;2024-01-30T14:40:56;7.70;99.90
7290;DHT22;63176;52.678;13.250;2024-01-30T14:43:22;7.70;99.90
7290;DHT22;63176;52.678;13.250;2024-01-30T14:45:47;7.70;99.90
7290;DHT22;63176;52.678;13.250;2024-01-30T14:48:15;7.70;99.90
7290;DHT22;63176;52.678;13.250;2024-01-30T14:50:40;7.70;99.90
7290;DHT22;63176;52.678;13.250;2024-01-30T14:53:06;7.60;99.90
7290;DHT22;63176;52.678;13.250;2024-01-30T14:55:32;7.60;99.90
7290;DHT22;63176;52.678;13.250;2024-01-30T14:57:58;7.60;99.90
7290;DHT22;63176;52.678;13.250;2024-01-30T15:00:25;7.60;99.90
7290;DHT22;63176;52.678;13.250;2024-01-30T15:02:50;7.50;99.90
7290;DHT22;63176;52.678;13.250;2024-01-30T15:05:16;7.50;99.90
7290;DHT22;63176;52.678;13.250;2024-01-30T15:07:42;7.50;99.90
7290;DHT22;63176;52.678;13.250;2024-01-30T15:10:08;7.40;99.90
7290;DHT22;63176;52.678;13.250;2024-01-30T15:12:35;7.30;99.90
7290;DHT22;63176;52.678;13.250;2024-01-30T15:15:01;7.20;99.90
7290;DHT22;63176;52.678;13.250;2024-01-30T15:17:26;7.10;99.90
7290;DHT22;63176;52.678;13.250;2024-01-30T15:19:52;7.10;99.90
7290;DHT22;63176;52.678;13.250;2024-01-30T15:22:18;7.10;99.90
7290;DHT22;63176;52.678;13.250;2024-01-30T15:24:44;6.90;99.90
7290;DHT22;63176;52.678;13.250;2024-01-30T15:27:09;6.90;99.90
7290;DHT22;63176;52.678;13.250;2024-01-30T15:29:35;6.70;99.90
7290;DHT22;63176;52.678;13.250;2024-01-30T15:32:01;6.70;99.90
7290;DHT22;63176;52.678;13.250;2024-01-30T15:34:26;6.60;99.90
7290;DHT22;63176;52.678;13.250;2024-01-30T15:36:52;6.60;99.90
7290;DHT22;63176;52.678;13.250;2024-01-30T15:39:18;6.50;99.90
7290;DHT22;63176;52.678;13.250;2024-01-30T15:41:43;6.40;99.90
7290;DHT22;63176;52.678;13.250;2024-01-30T15:44:09;6.40;99.90